sensor_id;sensor_type;location;lat;lon;timestamp;P1;durP1;ratioP1;P2;durP2;ratioP2
18228;SDS011;9239;50.932;3.142;2023-04-25T00:01:21;9.60;;;6.97;;
18228;SDS011;9239;50.932;3.142;2023-04-25T00:03:48;13.00;;;6.87;;
18228;SDS011;9239;50.932;3.142;2023-04-25T00:06:16;12.80;;;7.03;;
18228;SDS011;9239;50.932;3.142;2023-04-25T00:08:43;14.10;;;6.87;;
18228;SDS011;9239;50.932;3.142;2023-04-25T00:11:11;12.40;;;7.93;;
18228;SDS011;9239;50.932;3.142;2023-04-25T00:13:37;10.63;;;5.90;;
18228;SDS011;9239;50.932;3.142;2023-04-25T00:16:06;11.77;;;6.23;;
18228;SDS011;9239;50.932;3.142;2023-04-25T00:18:35;10.97;;;6.40;;
18228;SDS011;9239;50.932;3.142;2023-04-25T00:21:02;8.93;;;6.10;;
18228;SDS011;9239;50.932;3.142;2023-04-25T00:23:31;11.83;;;5.47;;
18228;SDS011;9239;50.932;3.142;2023-04-25T00:25:58;9.33;;;5.63;;
18228;SDS011;9239;50.932;3.142;2023-04-25T00:28:25;8.47;;;5.33;;
18228;SDS011;9239;50.932;3.142;2023-04-25T00:30:52;10.27;;;5.43;;
18228;SDS011;9239;50.932;3.142;2023-04-25T00:33:18;13.77;;;5.70;;
18228;SDS011;9239;50.932;3.142;2023-04-25T00:35:47;11.17;;;5.50;;
18228;SDS011;9239;50.932;3.142;2023-04-25T00:38:14;10.60;;;5.67;;
18228;SDS011;9239;50.932;3.142;2023-04-25T00:40:41;12.57;;;5.20;;
18228;SDS011;9239;50.932;3.142;2023-04-25T00:43:08;14.13;;;6.13;;
18228;SDS011;9239;50.932;3.142;2023-04-25T00:45:35;14.83;;;5.43;;
18228;SDS011;9239;50.932;3.142;2023-04-25T00:48:05;16.43;;;5.60;;
18228;SDS011;9239;50.932;3.142;2023-04-25T00:50:32;14.20;;;6.30;;
18228;SDS011;9239;50.932;3.142;2023-04-25T00:53:01;13.33;;;5.63;;
18228;SDS011;9239;50.932;3.142;2023-04-25T00:55:28;16.10;;;7.13;;
18228;SDS011;9239;50.932;3.142;2023-04-25T00:57:56;9.63;;;5.57;;
18228;SDS011;9239;50.932;3.142;2023-04-25T01:00:23;15.50;;;5.40;;
18228;SDS011;9239;50.932;3.142;2023-04-25T01:02:50;11.93;;;5.23;;
18228;SDS011;9239;50.932;3.142;2023-04-25T01:05:18;15.33;;;5.87;;
18228;SDS011;9239;50.932;3.142;2023-04-25T01:07:45;14.73;;;5.17;;
18228;SDS011;9239;50.932;3.142;2023-04-25T01:10:13;14.77;;;6.60;;
18228;SDS011;9239;50.932;3.142;2023-04-25T01:12:40;13.13;;;4.93;;
18228;SDS011;9239;50.932;3.142;2023-04-25T01:15:08;7.97;;;4.60;;
18228;SDS011;9239;50.932;3.142;2023-04-25T01:17:35;14.47;;;4.60;;
18228;SDS011;9239;50.932;3.142;2023-04-25T01:20:03;15.23;;;5.90;;
18228;SDS011;9239;50.932;3.142;2023-04-25T01:22:33;9.17;;;4.50;;
18228;SDS011;9239;50.932;3.142;2023-04-25T01:25:01;9.40;;;5.40;;
18228;SDS011;9239;50.932;3.142;2023-04-25T01:27:28;9.37;;;5.53;;
18228;SDS011;9239;50.932;3.142;2023-04-25T01:29:56;16.97;;;5.60;;
18228;SDS011;9239;50.932;3.142;2023-04-25T01:32:23;9.13;;;4.93;;
18228;SDS011;9239;50.932;3.142;2023-04-25T01:34:50;12.93;;;5.37;;
18228;SDS011;9239;50.932;3.142;2023-04-25T01:37:17;12.63;;;5.20;;
18228;SDS011;9239;50.932;3.142;2023-04-25T01:39:46;12.10;;;5.50;;
18228;SDS011;9239;50.932;3.142;2023-04-25T01:42:13;9.80;;;5.50;;
18228;SDS011;9239;50.932;3.142;2023-04-25T01:44:41;10.13;;;5.57;;
18228;SDS011;9239;50.932;3.142;2023-04-25T01:47:07;9.97;;;5.67;;
18228;SDS011;9239;50.932;3.142;2023-04-25T01:49:34;15.67;;;5.57;;
18228;SDS011;9239;50.932;3.142;2023-04-25T01:52:01;14.77;;;5.53;;
18228;SDS011;9239;50.932;3.142;2023-04-25T01:54:29;14.70;;;6.63;;
18228;SDS011;9239;50.932;3.142;2023-04-25T01:56:58;11.97;;;5.27;;
18228;SDS011;9239;50.932;3.142;2023-04-25T01:59:25;13.70;;;6.10;;
18228;SDS011;9239;50.932;3.142;2023-04-25T02:01:52;12.60;;;7.30;;
18228;SDS011;9239;50.932;3.142;2023-04-25T02:04:19;8.00;;;5.03;;
18228;SDS011;9239;50.932;3.142;2023-04-25T02:06:46;16.13;;;6.00;;
18228;SDS011;9239;50.932;3.142;2023-04-25T02:09:13;14.40;;;5.73;;
18228;SDS011;9239;50.932;3.142;2023-04-25T02:11:40;9.83;;;4.70;;
18228;SDS011;9239;50.932;3.142;2023-04-25T02:14:08;13.17;;;5.53;;
18228;SDS011;9239;50.932;3.142;2023-04-25T02:16:35;10.60;;;4.33;;
18228;SDS011;9239;50.932;3.142;2023-04-25T02:19:02;12.43;;;4.50;;
18228;SDS011;9239;50.932;3.142;2023-04-25T02:21:29;15.73;;;4.77;;
18228;SDS011;9239;50.932;3.142;2023-04-25T02:23:56;6.63;;;4.50;;
18228;SDS011;9239;50.932;3.142;2023-04-25T02:26:23;10.70;;;4.77;;
18228;SDS011;9239;50.932;3.142;2023-04-25T02:28:50;12.57;;;4.23;;
18228;SDS011;9239;50.932;3.142;2023-04-25T02:31:19;10.27;;;4.70;;
18228;SDS011;9239;50.932;3.142;2023-04-25T02:33:46;13.53;;;5.20;;
18228;SDS011;9239;50.932;3.142;2023-04-25T02:36:13;9.70;;;5.33;;
18228;SDS011;9239;50.932;3.142;2023-04-25T02:38:41;11.93;;;5.60;;
18228;SDS011;9239;50.932;3.142;2023-04-25T02:41:08;10.53;;;4.83;;
18228;SDS011;9239;50.932;3.142;2023-04-25T02:43:35;13.93;;;5.37;;
18228;SDS011;9239;50.932;3.142;2023-04-25T02:46:02;9.73;;;5.53;;
18228;SDS011;9239;50.932;3.142;2023-04-25T02:48:30;11.40;;;6.10;;
18228;SDS011;9239;50.932;3.142;2023-04-25T02:50:57;10.60;;;5.60;;
18228;SDS011;9239;50.932;3.142;2023-04-25T02:53:24;15.23;;;6.10;;
18228;SDS011;9239;50.932;3.142;2023-04-25T02:55:51;8.20;;;4.47;;
18228;SDS011;9239;50.932;3.142;2023-04-25T02:58:18;12.27;;;4.10;;
18228;SDS011;9239;50.932;3.142;2023-04-25T03:00:45;7.07;;;4.60;;
18228;SDS011;9239;50.932;3.142;2023-04-25T03:03:12;12.17;;;5.43;;
18228;SDS011;9239;50.932;3.142;2023-04-25T03:05:43;8.67;;;4.77;;
18228;SDS011;9239;50.932;3.142;2023-04-25T03:08:11;9.57;;;4.57;;
18228;SDS011;9239;50.932;3.142;2023-04-25T03:10:38;9.67;;;5.53;;
18228;SDS011;9239;50.932;3.142;2023-04-25T03:13:06;11.10;;;4.83;;
18228;SDS011;9239;50.932;3.142;2023-04-25T03:15:33;11.07;;;5.57;;
18228;SDS011;9239;50.932;3.142;2023-04-25T03:18:01;10.07;;;4.73;;
18228;SDS011;9239;50.932;3.142;2023-04-25T03:20:28;6.90;;;4.30;;
18228;SDS011;9239;50.932;3.142;2023-04-25T03:22:57;10.10;;;4.40;;
18228;SDS011;9239;50.932;3.142;2023-04-25T03:25:24;11.37;;;5.20;;
18228;SDS011;9239;50.932;3.142;2023-04-25T03:27:51;10.80;;;4.43;;
18228;SDS011;9239;50.932;3.142;2023-04-25T03:30:18;11.03;;;4.47;;
18228;SDS011;9239;50.932;3.142;2023-04-25T03:32:45;10.13;;;4.47;;
18228;SDS011;9239;50.932;3.142;2023-04-25T03:35:11;10.90;;;4.27;;
18228;SDS011;9239;50.932;3.142;2023-04-25T03:37:38;10.43;;;4.60;;
18228;SDS011;9239;50.932;3.142;2023-04-25T03:40:11;11.67;;;4.90;;
18228;SDS011;9239;50.932;3.142;2023-04-25T03:42:38;8.20;;;4.03;;
18228;SDS011;9239;50.932;3.142;2023-04-25T03:45:06;8.00;;;4.53;;
18228;SDS011;9239;50.932;3.142;2023-04-25T03:47:34;9.10;;;4.67;;
18228;SDS011;9239;50.932;3.142;2023-04-25T03:50:01;9.53;;;4.63;;
18228;SDS011;9239;50.932;3.142;2023-04-25T03:52:28;9.37;;;4.37;;
18228;SDS011;9239;50.932;3.142;2023-04-25T03:54:55;10.10;;;5.53;;
18228;SDS011;9239;50.932;3.142;2023-04-25T03:57:23;10.23;;;4.47;;
18228;SDS011;9239;50.932;3.142;2023-04-25T03:59:50;8.40;;;4.20;;
18228;SDS011;9239;50.932;3.142;2023-04-25T04:02:17;9.43;;;4.20;;
18228;SDS011;9239;50.932;3.142;2023-04-25T04:04:44;9.50;;;4.13;;
18228;SDS011;9239;50.932;3.142;2023-04-25T04:07:11;11.40;;;4.70;;
18228;SDS011;9239;50.932;3.142;2023-04-25T04:09:38;7.13;;;4.27;;
18228;SDS011;9239;50.932;3.142;2023-04-25T04:12:05;9.60;;;4.20;;
18228;SDS011;9239;50.932;3.142;2023-04-25T04:14:34;11.47;;;3.53;;
18228;SDS011;9239;50.932;3.142;2023-04-25T04:17:01;11.13;;;4.63;;
18228;SDS011;9239;50.932;3.142;2023-04-25T04:19:28;8.53;;;3.67;;
18228;SDS011;9239;50.932;3.142;2023-04-25T04:21:55;6.07;;;3.27;;
18228;SDS011;9239;50.932;3.142;2023-04-25T04:24:22;11.97;;;4.20;;
18228;SDS011;9239;50.932;3.142;2023-04-25T04:26:49;9.57;;;4.80;;
18228;SDS011;9239;50.932;3.142;2023-04-25T04:29:17;10.67;;;3.67;;
18228;SDS011;9239;50.932;3.142;2023-04-25T04:31:48;7.90;;;3.40;;
18228;SDS011;9239;50.932;3.142;2023-04-25T04:34:15;7.50;;;3.27;;
18228;SDS011;9239;50.932;3.142;2023-04-25T04:36:43;9.73;;;4.27;;
18228;SDS011;9239;50.932;3.142;2023-04-25T04:39:11;7.00;;;3.17;;
18228;SDS011;9239;50.932;3.142;2023-04-25T04:41:38;5.93;;;3.20;;
18228;SDS011;9239;50.932;3.142;2023-04-25T04:44:05;7.00;;;3.10;;
18228;SDS011;9239;50.932;3.142;2023-04-25T04:46:34;11.40;;;3.80;;
18228;SDS011;9239;50.932;3.142;2023-04-25T04:49:04;7.20;;;3.03;;
18228;SDS011;9239;50.932;3.142;2023-04-25T04:51:32;8.10;;;3.13;;
18228;SDS011;9239;50.932;3.142;2023-04-25T04:53:59;6.03;;;3.10;;
18228;SDS011;9239;50.932;3.142;2023-04-25T04:56:27;6.90;;;3.50;;
18228;SDS011;9239;50.932;3.142;2023-04-25T04:58:56;6.60;;;3.17;;
18228;SDS011;9239;50.932;3.142;2023-04-25T05:01:23;9.23;;;3.30;;
18228;SDS011;9239;50.932;3.142;2023-04-25T05:03:51;7.67;;;3.47;;
18228;SDS011;9239;50.932;3.142;2023-04-25T05:06:19;6.53;;;2.97;;
18228;SDS011;9239;50.932;3.142;2023-04-25T05:08:46;6.57;;;2.97;;
18228;SDS011;9239;50.932;3.142;2023-04-25T05:11:14;8.67;;;2.87;;
18228;SDS011;9239;50.932;3.142;2023-04-25T05:13:41;6.60;;;3.07;;
18228;SDS011;9239;50.932;3.142;2023-04-25T05:16:08;8.80;;;3.20;;
18228;SDS011;9239;50.932;3.142;2023-04-25T05:18:35;10.90;;;3.40;;
18228;SDS011;9239;50.932;3.142;2023-04-25T05:21:02;8.10;;;3.30;;
18228;SDS011;9239;50.932;3.142;2023-04-25T05:23:30;8.87;;;3.10;;
18228;SDS011;9239;50.932;3.142;2023-04-25T05:25:57;8.33;;;3.27;;
18228;SDS011;9239;50.932;3.142;2023-04-25T05:28:25;11.07;;;4.27;;
18228;SDS011;9239;50.932;3.142;2023-04-25T05:30:52;7.73;;;3.83;;
18228;SDS011;9239;50.932;3.142;2023-04-25T05:33:19;7.27;;;2.97;;
18228;SDS011;9239;50.932;3.142;2023-04-25T05:35:46;6.67;;;2.90;;
18228;SDS011;9239;50.932;3.142;2023-04-25T05:38:13;9.83;;;3.80;;
18228;SDS011;9239;50.932;3.142;2023-04-25T05:40:41;9.00;;;3.23;;
18228;SDS011;9239;50.932;3.142;2023-04-25T05:43:08;7.50;;;3.10;;
18228;SDS011;9239;50.932;3.142;2023-04-25T05:45:35;8.00;;;2.87;;
18228;SDS011;9239;50.932;3.142;2023-04-25T05:48:02;6.03;;;3.47;;
18228;SDS011;9239;50.932;3.142;2023-04-25T05:50:29;7.60;;;3.00;;
18228;SDS011;9239;50.932;3.142;2023-04-25T05:52:56;6.70;;;3.27;;
18228;SDS011;9239;50.932;3.142;2023-04-25T05:55:23;5.60;;;3.10;;
18228;SDS011;9239;50.932;3.142;2023-04-25T05:57:51;6.87;;;3.00;;
18228;SDS011;9239;50.932;3.142;2023-04-25T06:00:18;9.77;;;3.27;;
18228;SDS011;9239;50.932;3.142;2023-04-25T06:02:47;9.57;;;3.17;;
18228;SDS011;9239;50.932;3.142;2023-04-25T06:05:14;7.03;;;3.50;;
18228;SDS011;9239;50.932;3.142;2023-04-25T06:07:41;11.53;;;3.40;;
18228;SDS011;9239;50.932;3.142;2023-04-25T06:10:09;9.47;;;3.13;;
18228;SDS011;9239;50.932;3.142;2023-04-25T06:12:36;8.37;;;3.17;;
18228;SDS011;9239;50.932;3.142;2023-04-25T06:15:05;6.67;;;2.80;;
18228;SDS011;9239;50.932;3.142;2023-04-25T06:17:33;6.93;;;2.67;;
18228;SDS011;9239;50.932;3.142;2023-04-25T06:20:00;10.60;;;4.60;;
18228;SDS011;9239;50.932;3.142;2023-04-25T06:22:28;7.23;;;3.47;;
18228;SDS011;9239;50.932;3.142;2023-04-25T06:24:54;7.70;;;2.60;;
18228;SDS011;9239;50.932;3.142;2023-04-25T06:27:24;6.77;;;2.53;;
18228;SDS011;9239;50.932;3.142;2023-04-25T06:29:51;7.40;;;3.10;;
18228;SDS011;9239;50.932;3.142;2023-04-25T06:32:19;6.67;;;2.80;;
18228;SDS011;9239;50.932;3.142;2023-04-25T06:34:46;6.80;;;4.00;;
18228;SDS011;9239;50.932;3.142;2023-04-25T06:37:13;9.37;;;3.97;;
18228;SDS011;9239;50.932;3.142;2023-04-25T06:39:40;8.37;;;5.30;;
18228;SDS011;9239;50.932;3.142;2023-04-25T06:42:07;6.97;;;4.63;;
18228;SDS011;9239;50.932;3.142;2023-04-25T06:44:35;4.20;;;2.53;;
18228;SDS011;9239;50.932;3.142;2023-04-25T06:47:02;5.97;;;2.47;;
18228;SDS011;9239;50.932;3.142;2023-04-25T06:49:30;4.70;;;2.97;;
18228;SDS011;9239;50.932;3.142;2023-04-25T06:51:57;6.03;;;2.63;;
18228;SDS011;9239;50.932;3.142;2023-04-25T06:54:24;8.10;;;3.80;;
18228;SDS011;9239;50.932;3.142;2023-04-25T06:56:52;8.83;;;2.40;;
18228;SDS011;9239;50.932;3.142;2023-04-25T06:59:19;5.83;;;2.60;;
18228;SDS011;9239;50.932;3.142;2023-04-25T07:01:46;6.53;;;2.63;;
18228;SDS011;9239;50.932;3.142;2023-04-25T07:04:13;3.93;;;2.00;;
18228;SDS011;9239;50.932;3.142;2023-04-25T07:06:41;6.77;;;2.70;;
18228;SDS011;9239;50.932;3.142;2023-04-25T07:09:08;7.60;;;3.03;;
18228;SDS011;9239;50.932;3.142;2023-04-25T07:11:35;8.33;;;2.57;;
18228;SDS011;9239;50.932;3.142;2023-04-25T07:14:03;8.13;;;2.20;;
18228;SDS011;9239;50.932;3.142;2023-04-25T07:16:29;4.37;;;2.47;;
18228;SDS011;9239;50.932;3.142;2023-04-25T07:18:56;7.77;;;2.33;;
18228;SDS011;9239;50.932;3.142;2023-04-25T07:21:24;5.60;;;1.97;;
18228;SDS011;9239;50.932;3.142;2023-04-25T07:23:52;4.40;;;2.10;;
18228;SDS011;9239;50.932;3.142;2023-04-25T07:26:19;6.57;;;2.00;;
18228;SDS011;9239;50.932;3.142;2023-04-25T07:28:46;7.87;;;2.13;;
18228;SDS011;9239;50.932;3.142;2023-04-25T07:31:15;7.27;;;2.23;;
18228;SDS011;9239;50.932;3.142;2023-04-25T07:33:43;5.10;;;2.13;;
18228;SDS011;9239;50.932;3.142;2023-04-25T07:36:11;3.77;;;2.00;;
18228;SDS011;9239;50.932;3.142;2023-04-25T07:38:38;8.30;;;2.77;;
18228;SDS011;9239;50.932;3.142;2023-04-25T07:41:06;7.77;;;2.03;;
18228;SDS011;9239;50.932;3.142;2023-04-25T07:43:33;8.80;;;2.37;;
18228;SDS011;9239;50.932;3.142;2023-04-25T07:46:00;4.13;;;1.77;;
18228;SDS011;9239;50.932;3.142;2023-04-25T07:48:27;7.77;;;2.33;;
18228;SDS011;9239;50.932;3.142;2023-04-25T07:50:54;4.20;;;2.23;;
18228;SDS011;9239;50.932;3.142;2023-04-25T07:53:21;4.80;;;2.00;;
18228;SDS011;9239;50.932;3.142;2023-04-25T07:55:48;5.03;;;2.10;;
18228;SDS011;9239;50.932;3.142;2023-04-25T07:58:17;4.30;;;2.30;;
18228;SDS011;9239;50.932;3.142;2023-04-25T08:00:46;6.60;;;2.30;;
18228;SDS011;9239;50.932;3.142;2023-04-25T08:03:14;9.60;;;2.30;;
18228;SDS011;9239;50.932;3.142;2023-04-25T08:05:40;4.23;;;2.30;;
18228;SDS011;9239;50.932;3.142;2023-04-25T08:08:08;6.73;;;2.60;;
18228;SDS011;9239;50.932;3.142;2023-04-25T08:10:35;7.07;;;2.47;;
18228;SDS011;9239;50.932;3.142;2023-04-25T08:13:02;4.67;;;2.00;;
18228;SDS011;9239;50.932;3.142;2023-04-25T08:15:31;8.03;;;3.17;;
18228;SDS011;9239;50.932;3.142;2023-04-25T08:17:57;5.43;;;2.07;;
18228;SDS011;9239;50.932;3.142;2023-04-25T08:20:24;5.37;;;2.47;;
18228;SDS011;9239;50.932;3.142;2023-04-25T08:22:51;6.93;;;2.97;;
18228;SDS011;9239;50.932;3.142;2023-04-25T08:25:18;6.70;;;2.03;;
18228;SDS011;9239;50.932;3.142;2023-04-25T08:27:45;6.17;;;2.10;;
18228;SDS011;9239;50.932;3.142;2023-04-25T08:30:12;3.27;;;1.60;;
18228;SDS011;9239;50.932;3.142;2023-04-25T08:32:41;9.40;;;1.90;;
18228;SDS011;9239;50.932;3.142;2023-04-25T08:35:08;5.90;;;1.70;;
18228;SDS011;9239;50.932;3.142;2023-04-25T08:37:35;5.80;;;1.50;;
18228;SDS011;9239;50.932;3.142;2023-04-25T08:40:03;6.17;;;2.13;;
18228;SDS011;9239;50.932;3.142;2023-04-25T08:42:32;4.27;;;1.57;;
18228;SDS011;9239;50.932;3.142;2023-04-25T08:45:00;5.07;;;1.97;;
18228;SDS011;9239;50.932;3.142;2023-04-25T08:47:29;6.97;;;2.27;;
18228;SDS011;9239;50.932;3.142;2023-04-25T08:50:00;2.93;;;1.27;;
18228;SDS011;9239;50.932;3.142;2023-04-25T08:52:30;4.67;;;1.73;;
18228;SDS011;9239;50.932;3.142;2023-04-25T08:55:02;5.30;;;2.00;;
18228;SDS011;9239;50.932;3.142;2023-04-25T08:57:31;6.80;;;1.83;;
18228;SDS011;9239;50.932;3.142;2023-04-25T09:00:00;5.27;;;1.87;;
18228;SDS011;9239;50.932;3.142;2023-04-25T09:02:28;1.73;;;1.10;;
18228;SDS011;9239;50.932;3.142;2023-04-25T09:04:55;4.37;;;1.93;;
18228;SDS011;9239;50.932;3.142;2023-04-25T09:07:24;4.00;;;1.37;;
18228;SDS011;9239;50.932;3.142;2023-04-25T09:09:51;2.57;;;1.53;;
18228;SDS011;9239;50.932;3.142;2023-04-25T09:12:19;5.40;;;1.67;;
18228;SDS011;9239;50.932;3.142;2023-04-25T09:15:00;2.67;;;1.27;;
18228;SDS011;9239;50.932;3.142;2023-04-25T09:17:31;2.00;;;1.30;;
18228;SDS011;9239;50.932;3.142;2023-04-25T09:20:08;3.70;;;1.10;;
18228;SDS011;9239;50.932;3.142;2023-04-25T09:22:37;4.53;;;1.40;;
18228;SDS011;9239;50.932;3.142;2023-04-25T09:25:07;6.83;;;1.40;;
18228;SDS011;9239;50.932;3.142;2023-04-25T09:27:35;1.67;;;1.30;;
18228;SDS011;9239;50.932;3.142;2023-04-25T09:30:03;6.53;;;1.40;;
18228;SDS011;9239;50.932;3.142;2023-04-25T09:32:30;2.73;;;1.00;;
18228;SDS011;9239;50.932;3.142;2023-04-25T09:34:57;2.97;;;1.50;;
18228;SDS011;9239;50.932;3.142;2023-04-25T09:37:25;7.20;;;2.10;;
18228;SDS011;9239;50.932;3.142;2023-04-25T09:39:55;2.13;;;1.50;;
18228;SDS011;9239;50.932;3.142;2023-04-25T09:42:24;2.63;;;1.20;;
18228;SDS011;9239;50.932;3.142;2023-04-25T09:44:52;4.17;;;1.27;;
18228;SDS011;9239;50.932;3.142;2023-04-25T09:47:20;1.50;;;1.03;;
18228;SDS011;9239;50.932;3.142;2023-04-25T09:49:48;2.53;;;1.10;;
18228;SDS011;9239;50.932;3.142;2023-04-25T09:52:16;7.50;;;1.50;;
18228;SDS011;9239;50.932;3.142;2023-04-25T09:54:45;5.07;;;1.43;;
18228;SDS011;9239;50.932;3.142;2023-04-25T09:57:16;5.77;;;1.90;;
18228;SDS011;9239;50.932;3.142;2023-04-25T09:59:44;5.97;;;2.03;;
18228;SDS011;9239;50.932;3.142;2023-04-25T10:02:12;4.23;;;1.43;;
18228;SDS011;9239;50.932;3.142;2023-04-25T10:04:41;3.63;;;1.13;;
18228;SDS011;9239;50.932;3.142;2023-04-25T10:07:08;4.10;;;1.33;;
18228;SDS011;9239;50.932;3.142;2023-04-25T10:09:36;2.63;;;1.30;;
18228;SDS011;9239;50.932;3.142;2023-04-25T10:12:04;4.87;;;1.37;;
18228;SDS011;9239;50.932;3.142;2023-04-25T10:14:33;4.17;;;1.30;;
18228;SDS011;9239;50.932;3.142;2023-04-25T10:17:00;1.13;;;0.93;;
18228;SDS011;9239;50.932;3.142;2023-04-25T10:19:28;4.43;;;1.70;;
18228;SDS011;9239;50.932;3.142;2023-04-25T10:21:58;3.07;;;1.47;;
18228;SDS011;9239;50.932;3.142;2023-04-25T10:24:31;1.43;;;1.10;;
18228;SDS011;9239;50.932;3.142;2023-04-25T10:26:59;4.80;;;1.90;;
18228;SDS011;9239;50.932;3.142;2023-04-25T10:29:27;2.93;;;1.30;;
18228;SDS011;9239;50.932;3.142;2023-04-25T10:31:55;4.67;;;2.07;;
18228;SDS011;9239;50.932;3.142;2023-04-25T10:34:24;4.03;;;1.43;;
18228;SDS011;9239;50.932;3.142;2023-04-25T10:37:03;3.33;;;1.80;;
18228;SDS011;9239;50.932;3.142;2023-04-25T10:39:30;3.83;;;1.17;;
18228;SDS011;9239;50.932;3.142;2023-04-25T10:41:59;5.37;;;2.10;;
18228;SDS011;9239;50.932;3.142;2023-04-25T10:44:29;4.37;;;1.20;;
18228;SDS011;9239;50.932;3.142;2023-04-25T10:46:58;3.43;;;1.30;;
18228;SDS011;9239;50.932;3.142;2023-04-25T10:49:33;3.10;;;1.50;;
18228;SDS011;9239;50.932;3.142;2023-04-25T10:52:24;4.43;;;1.40;;
18228;SDS011;9239;50.932;3.142;2023-04-25T10:54:53;3.10;;;1.30;;
18228;SDS011;9239;50.932;3.142;2023-04-25T10:57:31;5.00;;;1.70;;
18228;SDS011;9239;50.932;3.142;2023-04-25T11:00:05;5.20;;;1.07;;
18228;SDS011;9239;50.932;3.142;2023-04-25T11:02:39;3.80;;;1.23;;
18228;SDS011;9239;50.932;3.142;2023-04-25T11:05:10;3.10;;;1.07;;
18228;SDS011;9239;50.932;3.142;2023-04-25T11:07:44;1.93;;;1.40;;
18228;SDS011;9239;50.932;3.142;2023-04-25T11:10:18;4.60;;;1.47;;
18228;SDS011;9239;50.932;3.142;2023-04-25T11:12:45;2.63;;;1.07;;
18228;SDS011;9239;50.932;3.142;2023-04-25T11:15:13;3.73;;;1.00;;
18228;SDS011;9239;50.932;3.142;2023-04-25T11:17:41;2.20;;;1.60;;
18228;SDS011;9239;50.932;3.142;2023-04-25T11:20:11;4.00;;;1.70;;
18228;SDS011;9239;50.932;3.142;2023-04-25T11:22:39;3.17;;;1.43;;
18228;SDS011;9239;50.932;3.142;2023-04-25T11:25:07;2.57;;;1.00;;
18228;SDS011;9239;50.932;3.142;2023-04-25T11:27:37;3.13;;;0.87;;
18228;SDS011;9239;50.932;3.142;2023-04-25T11:30:12;2.80;;;1.10;;
18228;SDS011;9239;50.932;3.142;2023-04-25T11:32:42;3.30;;;1.23;;
18228;SDS011;9239;50.932;3.142;2023-04-25T11:35:09;5.47;;;1.30;;
18228;SDS011;9239;50.932;3.142;2023-04-25T11:37:36;3.13;;;1.30;;
18228;SDS011;9239;50.932;3.142;2023-04-25T11:40:06;2.87;;;1.10;;
18228;SDS011;9239;50.932;3.142;2023-04-25T11:42:35;3.57;;;1.30;;
18228;SDS011;9239;50.932;3.142;2023-04-25T11:45:03;1.90;;;1.00;;
18228;SDS011;9239;50.932;3.142;2023-04-25T11:47:31;1.53;;;1.00;;
18228;SDS011;9239;50.932;3.142;2023-04-25T11:50:00;2.17;;;0.90;;
18228;SDS011;9239;50.932;3.142;2023-04-25T11:52:38;2.50;;;1.20;;
18228;SDS011;9239;50.932;3.142;2023-04-25T11:55:06;3.40;;;1.03;;
18228;SDS011;9239;50.932;3.142;2023-04-25T11:57:34;3.50;;;0.97;;
18228;SDS011;9239;50.932;3.142;2023-04-25T12:00:06;1.13;;;0.70;;
18228;SDS011;9239;50.932;3.142;2023-04-25T12:02:40;3.53;;;1.33;;
18228;SDS011;9239;50.932;3.142;2023-04-25T12:05:09;3.87;;;1.60;;
18228;SDS011;9239;50.932;3.142;2023-04-25T12:07:37;6.57;;;1.70;;
18228;SDS011;9239;50.932;3.142;2023-04-25T12:10:04;5.70;;;1.60;;
18228;SDS011;9239;50.932;3.142;2023-04-25T12:12:33;2.93;;;1.23;;
18228;SDS011;9239;50.932;3.142;2023-04-25T12:15:11;2.77;;;1.37;;
18228;SDS011;9239;50.932;3.142;2023-04-25T12:17:41;4.83;;;1.60;;
18228;SDS011;9239;50.932;3.142;2023-04-25T12:20:11;5.43;;;1.73;;
18228;SDS011;9239;50.932;3.142;2023-04-25T12:22:40;3.97;;;1.53;;
18228;SDS011;9239;50.932;3.142;2023-04-25T12:25:10;4.07;;;1.50;;
18228;SDS011;9239;50.932;3.142;2023-04-25T12:27:38;5.10;;;1.40;;
18228;SDS011;9239;50.932;3.142;2023-04-25T12:30:07;4.70;;;1.70;;
18228;SDS011;9239;50.932;3.142;2023-04-25T12:32:35;4.67;;;1.33;;
18228;SDS011;9239;50.932;3.142;2023-04-25T12:35:03;7.20;;;1.63;;
18228;SDS011;9239;50.932;3.142;2023-04-25T12:37:32;4.43;;;1.40;;
18228;SDS011;9239;50.932;3.142;2023-04-25T12:40:00;5.57;;;1.20;;
18228;SDS011;9239;50.932;3.142;2023-04-25T12:42:28;2.20;;;1.10;;
18228;SDS011;9239;50.932;3.142;2023-04-25T12:44:55;3.37;;;2.00;;
18228;SDS011;9239;50.932;3.142;2023-04-25T12:47:22;4.87;;;1.70;;
18228;SDS011;9239;50.932;3.142;2023-04-25T12:49:49;3.57;;;1.80;;
18228;SDS011;9239;50.932;3.142;2023-04-25T12:52:16;4.00;;;2.20;;
18228;SDS011;9239;50.932;3.142;2023-04-25T12:54:44;1.73;;;1.17;;
18228;SDS011;9239;50.932;3.142;2023-04-25T12:57:11;2.67;;;0.83;;
18228;SDS011;9239;50.932;3.142;2023-04-25T12:59:38;3.67;;;1.13;;
18228;SDS011;9239;50.932;3.142;2023-04-25T13:02:05;4.40;;;1.47;;
18228;SDS011;9239;50.932;3.142;2023-04-25T13:04:32;3.70;;;1.30;;
18228;SDS011;9239;50.932;3.142;2023-04-25T13:06:59;3.70;;;1.37;;
18228;SDS011;9239;50.932;3.142;2023-04-25T13:09:26;3.03;;;1.27;;
18228;SDS011;9239;50.932;3.142;2023-04-25T13:11:54;1.27;;;1.00;;
18228;SDS011;9239;50.932;3.142;2023-04-25T13:14:22;3.37;;;1.30;;
18228;SDS011;9239;50.932;3.142;2023-04-25T13:16:49;3.70;;;1.20;;
18228;SDS011;9239;50.932;3.142;2023-04-25T13:19:16;1.93;;;0.93;;
18228;SDS011;9239;50.932;3.142;2023-04-25T13:21:43;3.27;;;1.07;;
18228;SDS011;9239;50.932;3.142;2023-04-25T13:24:10;2.60;;;1.20;;
18228;SDS011;9239;50.932;3.142;2023-04-25T13:26:37;1.47;;;1.00;;
18228;SDS011;9239;50.932;3.142;2023-04-25T13:29:05;1.60;;;0.73;;
18228;SDS011;9239;50.932;3.142;2023-04-25T13:31:32;3.37;;;1.17;;
18228;SDS011;9239;50.932;3.142;2023-04-25T13:33:59;3.03;;;1.30;;
18228;SDS011;9239;50.932;3.142;2023-04-25T13:36:26;3.23;;;1.70;;
18228;SDS011;9239;50.932;3.142;2023-04-25T13:38:54;1.97;;;1.10;;
18228;SDS011;9239;50.932;3.142;2023-04-25T13:41:20;6.97;;;1.30;;
18228;SDS011;9239;50.932;3.142;2023-04-25T13:43:47;4.37;;;1.20;;
18228;SDS011;9239;50.932;3.142;2023-04-25T13:46:16;2.00;;;1.17;;
18228;SDS011;9239;50.932;3.142;2023-04-25T13:48:43;2.67;;;1.00;;
18228;SDS011;9239;50.932;3.142;2023-04-25T13:51:14;1.80;;;1.10;;
18228;SDS011;9239;50.932;3.142;2023-04-25T13:53:42;4.20;;;1.30;;
18228;SDS011;9239;50.932;3.142;2023-04-25T13:56:10;2.80;;;1.20;;
18228;SDS011;9239;50.932;3.142;2023-04-25T13:58:37;2.27;;;1.33;;
18228;SDS011;9239;50.932;3.142;2023-04-25T14:01:04;3.60;;;1.07;;
18228;SDS011;9239;50.932;3.142;2023-04-25T14:03:33;3.60;;;1.43;;
18228;SDS011;9239;50.932;3.142;2023-04-25T14:06:00;8.80;;;1.40;;
18228;SDS011;9239;50.932;3.142;2023-04-25T14:08:27;5.23;;;1.40;;
18228;SDS011;9239;50.932;3.142;2023-04-25T14:10:54;7.57;;;1.07;;
18228;SDS011;9239;50.932;3.142;2023-04-25T14:13:21;4.50;;;1.30;;
18228;SDS011;9239;50.932;3.142;2023-04-25T14:15:48;5.83;;;1.70;;
18228;SDS011;9239;50.932;3.142;2023-04-25T14:18:16;2.47;;;1.00;;
18228;SDS011;9239;50.932;3.142;2023-04-25T14:20:45;5.47;;;1.13;;
18228;SDS011;9239;50.932;3.142;2023-04-25T14:23:12;2.00;;;1.20;;
18228;SDS011;9239;50.932;3.142;2023-04-25T14:25:39;2.93;;;1.17;;
18228;SDS011;9239;50.932;3.142;2023-04-25T14:28:07;3.73;;;1.03;;
18228;SDS011;9239;50.932;3.142;2023-04-25T14:30:34;2.40;;;1.40;;
18228;SDS011;9239;50.932;3.142;2023-04-25T14:33:01;5.33;;;1.50;;
18228;SDS011;9239;50.932;3.142;2023-04-25T14:35:28;1.77;;;1.20;;
18228;SDS011;9239;50.932;3.142;2023-04-25T14:37:56;3.20;;;1.03;;
18228;SDS011;9239;50.932;3.142;2023-04-25T14:40:23;4.07;;;0.90;;
18228;SDS011;9239;50.932;3.142;2023-04-25T14:42:51;3.53;;;1.00;;
18228;SDS011;9239;50.932;3.142;2023-04-25T14:45:18;4.90;;;1.17;;
18228;SDS011;9239;50.932;3.142;2023-04-25T14:47:45;4.20;;;1.33;;
18228;SDS011;9239;50.932;3.142;2023-04-25T14:50:12;2.20;;;1.20;;
18228;SDS011;9239;50.932;3.142;2023-04-25T14:52:39;1.90;;;1.10;;
18228;SDS011;9239;50.932;3.142;2023-04-25T14:55:08;2.90;;;1.20;;
18228;SDS011;9239;50.932;3.142;2023-04-25T14:57:35;2.70;;;1.43;;
18228;SDS011;9239;50.932;3.142;2023-04-25T15:00:02;3.07;;;1.37;;
18228;SDS011;9239;50.932;3.142;2023-04-25T15:02:34;2.70;;;1.30;;